Time;durP1;ratioP1;P1;durP2;ratioP2;P2;SDS_P1;SDS_P2;PMS_P1;PMS_P2;Temp;Humidity;BMP_temperature;BMP_pressure;BME280_temperature;BME280_humidity;BME280_pressure;Samples;Min_cycle;Max_cycle;Signal;HPM_P1;HPM_P2
2022/04/29 00:04:59;;;;;;;;;;;;;;;13.58;43.93;100016.11;233560;1217;139436;-59
2022/04/29 00:10:03;;;;;;;22.10;13.10;;;;;;;13.47;44.03;100014.29;233197;1217;125095;-59
2022/04/29 00:15:07;;;;;;;24.70;13.80;;;;;;;13.37;44.05;100008.46;233409;1217;139771;-58
2022/04/29 00:20:11;;;;;;;28.10;14.90;;;;;;;13.31;43.96;100014.87;233456;1217;139651;-59
2022/04/29 00:25:14;;;;;;;25.00;14.00;;;;;;;13.20;44.49;100020.98;233303;1217;139428;-58
2022/04/29 00:30:17;;;;;;;26.00;14.90;;;;;;;13.08;44.92;100019.17;233335;1217;139548;-61
2022/04/29 00:35:21;;;;;;;23.50;14.80;;;;;;;12.99;45.03;100021.08;233300;1217;139384;-59
2022/04/29 00:40:26;;;;;;;25.70;15.70;;;;;;;12.91;45.55;100023.00;233420;1217;141753;-62
2022/04/29 00:45:29;;;;;;;28.40;16.00;;;;;;;12.89;45.14;100021.99;233448;1217;140286;-63
2022/04/29 00:50:33;;;;;;;25.00;16.40;;;;;;;12.90;45.57;100018.05;233466;1217;138988;-63
2022/04/29 00:55:38;;;;;;;23.70;15.20;;;;;;;12.87;45.57;100016.58;233478;1215;139377;-64
2022/04/29 01:00:41;;;;;;;24.70;16.20;;;;;;;12.84;45.51;100016.23;233728;1216;138705;-63
2022/04/29 01:05:48;;;;;;;29.80;16.40;;;;;;;12.81;45.58;100012.33;233415;1217;139331;-63
2022/04/29 01:10:51;;;;;;;25.10;15.20;;;;;;;12.77;45.74;100008.08;233423;1217;139002;-62
2022/04/29 01:15:57;;;;;;;23.70;15.00;;;;;;;12.74;46.08;100008.45;233532;1217;139126;-62
2022/04/29 01:21:03;;;;;;;23.90;15.30;;;;;;;12.68;45.88;100005.38;233524;1217;139649;-66
2022/04/29 01:26:06;;;;;;;27.20;15.80;;;;;;;12.58;45.80;100005.23;233215;1217;139572;-65
2022/04/29 01:31:14;;;;;;;24.80;15.80;;;;;;;12.46;45.76;100000.70;232552;1216;140426;-65
2022/04/29 01:36:18;;;;;;;29.00;16.40;;;;;;;12.41;46.22;99997.77;233349;1217;139304;-67
2022/04/29 01:41:21;;;;;;;28.80;15.80;;;;;;;12.38;46.40;99992.94;233480;1217;139775;-66
2022/04/29 01:46:24;;;;;;;26.90;16.50;;;;;;;12.34;46.41;99988.71;233371;1217;139592;-62
2022/04/29 01:51:45;;;;;;;26.00;16.60;;;;;;;12.28;46.67;99989.01;233222;1217;138961;-60
2022/04/29 01:56:52;;;;;;;29.70;17.50;;;;;;;12.22;46.71;99991.30;233270;1217;138962;-60
2022/04/29 02:01:57;;;;;;;32.00;17.30;;;;;;;12.13;46.12;99990.89;232709;1217;139850;-60
2022/04/29 02:07:05;;;;;;;29.80;18.40;;;;;;;12.04;46.62;99991.21;233415;1217;139450;-63
2022/04/29 02:12:15;;;;;;;26.20;17.10;;;;;;;11.93;46.81;99992.30;233371;1217;139535;-59
2022/04/29 02:17:30;;;;;;;33.10;19.30;;;;;;;11.83;46.81;99995.11;233436;1217;139065;-61
2022/04/29 02:22:34;;;;;;;32.50;18.40;;;;;;;11.74;47.01;99995.05;233350;1217;139924;-61
2022/04/29 02:27:39;;;;;;;32.60;19.00;;;;;;;11.64;47.23;99997.50;233255;1217;138961;-61
2022/04/29 02:32:43;;;;;;;30.10;20.10;;;;;;;11.54;47.24;99991.62;233141;1217;139013;-61
2022/04/29 02:37:45;;;;;;;32.20;19.20;;;;;;;11.50;47.19;99992.73;233260;1217;140355;-61
2022/04/29 02:42:49;;;;;;;37.10;20.50;;;;;;;11.45;47.33;99993.14;233222;1217;138943;-60
2022/04/29 02:47:51;;;;;;;34.20;20.10;;;;;;;11.40;47.65;99989.15;233184;1217;139106;-62
2022/04/29 02:52:55;;;;;;;33.40;20.80;;;;;;;11.34;47.67;99991.02;233188;1217;138888;-59
2022/04/29 02:57:58;;;;;;;38.70;21.40;;;;;;;11.29;47.93;99992.35;233354;1217;138825;-60
2022/04/29 03:03:01;;;;;;;34.70;19.50;;;;;;;11.25;48.09;99992.92;233850;1217;139706;-63
2022/04/29 03:08:05;;;;;;;40.90;20.70;;;;;;;11.19;47.94;99990.70;233465;1217;139175;-61
2022/04/29 03:13:08;;;;;;;32.40;19.70;;;;;;;11.11;48.12;99997.30;233119;1217;139641;-60
2022/04/29 03:18:23;;;;;;;30.20;18.20;;;;;;;11.08;48.35;99999.41;233246;1217;139218;-60
2022/04/29 03:23:26;;;;;;;34.90;17.90;;;;;;;11.01;48.42;100000.63;233372;1217;141736;-60
2022/04/29 03:28:31;;;;;;;33.80;17.90;;;;;;;10.95;48.41;100002.88;233271;1217;139716;-60
2022/04/29 03:33:34;;;;;;;31.80;17.40;;;;;;;10.92;48.53;100004.28;233348;1217;139090;-59
2022/04/29 03:38:38;;;;;;;30.10;17.40;;;;;;;10.89;48.84;100004.59;233336;1217;140721;-60
2022/04/29 03:43:41;;;;;;;27.60;16.60;;;;;;;10.87;48.75;100007.54;233360;1217;139460;-59
2022/04/29 03:54:32;;;;;;;28.30;16.70;;;;;;;10.78;48.73;100014.16;233292;1216;139112;-61
2022/04/29 03:59:36;;;;;;;27.80;17.00;;;;;;;10.79;48.83;100018.71;233262;1217;139446;-61
2022/04/29 04:04:40;;;;;;;28.70;16.70;;;;;;;10.84;48.87;100017.93;233256;1218;139427;-64
2022/04/29 04:09:51;;;;;;;32.90;16.90;;;;;;;10.94;48.89;100022.84;233295;1217;140075;-60
2022/04/29 04:15:00;;;;;;;33.10;17.60;;;;;;;10.95;49.21;100030.05;233391;1217;138878;-62
2022/04/29 04:20:05;;;;;;;34.20;18.20;;;;;;;10.91;49.08;100026.69;233479;1217;139586;-63
2022/04/29 04:25:17;;;;;;;34.70;17.60;;;;;;;10.88;49.02;100021.14;233078;1216;139665;-63
2022/04/29 04:30:20;;;;;;;34.00;17.20;;;;;;;10.89;49.36;100023.05;233269;1217;139666;-63
2022/04/29 04:35:23;;;;;;;36.00;19.10;;;;;;;10.90;49.09;100028.50;233417;1217;139734;-64
2022/04/29 04:40:26;;;;;;;35.70;18.80;;;;;;;10.90;49.24;100031.51;233404;1217;139283;-63
2022/04/29 04:45:30;;;;;;;34.20;18.30;;;;;;;10.94;49.54;100037.58;233414;1217;139992;-64
2022/04/29 04:50:53;;;;;;;39.00;19.00;;;;;;;10.95;49.29;100042.46;233409;1217;152040;-63
2022/04/29 04:55:56;;;;;;;35.20;20.10;;;;;;;10.95;49.45;100044.05;233330;1217;138956;-64
2022/04/29 05:01:01;;;;;;;41.40;21.40;;;;;;;10.98;49.80;100050.33;233263;1217;138898;-64
2022/04/29 05:06:22;;;;;;;43.10;19.90;;;;;;;11.05;49.68;100054.60;233450;1217;139132;-63
2022/04/29 05:11:25;;;;;;;39.40;20.00;;;;;;;11.16;49.88;100056.05;233262;1217;139174;-62
2022/04/29 05:17:01;;;;;;;35.30;20.10;;;;;;;11.28;49.67;100063.64;233386;1217;139835;-65
2022/04/29 05:22:30;;;;;;;36.80;19.90;;;;;;;11.42;49.53;100059.57;233237;1217;139099;-65
2022/04/29 05:27:33;;;;;;;47.20;21.70;;;;;;;11.63;49.89;100062.11;233216;1217;138707;-65
2022/04/29 05:32:55;;;;;;;32.40;20.20;;;;;;;11.86;49.69;100063.26;233479;1217;139178;-65
2022/04/29 05:38:16;;;;;;;38.50;21.80;;;;;;;12.01;49.36;100062.47;233554;1217;138853;-63
2022/04/29 05:43:21;;;;;;;33.90;20.30;;;;;;;12.16;49.73;100066.71;233244;1217;139309;-64
2022/04/29 05:48:24;;;;;;;37.40;21.60;;;;;;;12.25;48.94;100065.70;233474;1217;139822;-64
2022/04/29 05:53:27;;;;;;;41.50;22.00;;;;;;;12.32;49.28;100069.96;233176;1217;139417;-64
2022/04/29 05:58:37;;;;;;;34.20;20.70;;;;;;;12.43;49.32;100074.52;233249;1217;139443;-62
2022/04/29 06:04:02;;;;;;;35.90;21.30;;;;;;;12.55;49.19;100077.65;233246;1217;141374;-64
2022/04/29 06:09:09;;;;;;;37.60;22.10;;;;;;;12.64;48.80;100077.14;233262;1217;139011;-63
2022/04/29 06:14:13;;;;;;;35.90;22.00;;;;;;;12.71;48.72;100086.61;233051;1217;140545;-63
2022/04/29 06:19:52;;;;;;;35.80;21.30;;;;;;;12.85;49.00;100088.69;233191;1217;140251;-60
2022/04/29 06:25:27;;;;;;;36.70;21.40;;;;;;;13.02;48.48;100084.49;233469;1217;140270;-64
2022/04/29 06:30:31;;;;;;;38.80;21.40;;;;;;;13.16;48.38;100090.02;233375;1217;138864;-62
2022/04/29 06:36:26;;;;;;;39.40;21.80;;;;;;;13.25;48.04;100088.09;233396;1217;139286;-64
2022/04/29 06:41:32;;;;;;;39.00;21.50;;;;;;;13.34;48.34;100099.02;233308;1217;139035;-64
2022/04/29 06:46:45;;;;;;;34.70;21.80;;;;;;;13.46;48.28;100099.91;233183;1217;138927;-65
2022/04/29 06:51:48;;;;;;;36.40;22.50;;;;;;;13.62;48.26;100094.56;233190;1217;139240;-65
2022/04/29 06:56:56;;;;;;;35.20;21.50;;;;;;;13.72;48.05;100104.45;233204;1217;138715;-64
2022/04/29 07:02:00;;;;;;;36.70;21.00;;;;;;;13.73;47.95;100104.79;233381;1217;139509;-64
2022/04/29 07:07:05;;;;;;;37.90;19.80;;;;;;;13.76;47.67;100108.17;233388;1217;139841;-64
2022/04/29 07:12:12;;;;;;;38.90;21.30;;;;;;;13.80;47.82;100115.23;233159;1217;139857;-65
2022/04/29 07:17:35;;;;;;;37.80;22.10;;;;;;;13.78;47.66;100114.45;233295;1217;139362;-62
2022/04/29 07:22:42;;;;;;;33.70;20.80;;;;;;;13.80;47.61;100115.42;233394;1217;139167;-63
2022/04/29 07:27:46;;;;;;;32.20;19.70;;;;;;;13.82;47.54;100115.67;233262;1217;139316;-63
2022/04/29 07:32:50;;;;;;;35.60;21.60;;;;;;;13.84;47.69;100117.72;233285;1217;139244;-61
2022/04/29 07:43:39;;;;;;;38.70;23.10;;;;;;;14.08;47.81;100120.58;233237;1214;139311;-63
2022/04/29 07:48:44;;;;;;;31.50;19.30;;;;;;;14.24;47.94;100113.38;233403;1217;139619;-63
2022/04/29 07:53:47;;;;;;;72.00;55.10;;;;;;;14.39;47.62;100119.94;233342;1217;139423;-61
2022/04/29 07:58:50;;;;;;;48.70;33.50;;;;;;;14.55;47.69;100121.15;233295;1217;139301;-64
2022/04/29 08:03:54;;;;;;;34.50;19.60;;;;;;;14.78;47.76;100120.82;233156;1217;233295;-61
2022/04/29 08:08:57;;;;;;;37.10;19.80;;;;;;;14.90;47.29;100114.73;233271;1217;139386;-63
2022/04/29 08:14:00;;;;;;;31.30;18.90;;;;;;;15.02;47.33;100111.98;233269;1217;139515;-64
2022/04/29 08:19:48;;;;;;;35.40;19.30;;;;;;;15.18;47.43;100110.77;232980;1217;139419;-62
2022/04/29 08:24:57;;;;;;;71.00;49.80;;;;;;;15.34;47.39;100101.38;233275;1217;139941;-65
2022/04/29 08:30:00;;;;;;;67.30;49.60;;;;;;;15.61;47.63;100097.66;233465;1217;139716;-63
2022/04/29 08:35:06;;;;;;;32.10;17.70;;;;;;;15.92;47.53;100093.80;232966;1217;140117;-60
2022/04/29 08:40:13;;;;;;;35.30;17.40;;;;;;;16.08;47.14;100087.01;233158;1217;139839;-61
2022/04/29 08:45:18;;;;;;;27.10;16.70;;;;;;;16.30;47.00;100084.05;233648;1217;138852;-61
2022/04/29 08:50:40;;;;;;;35.30;16.40;;;;;;;16.50;46.89;100083.77;233671;1217;138995;-65
2022/04/29 09:01:13;;;;;;;295.90;213.50;;;;;;;16.87;46.06;100077.20;232845;1217;138919;-62
2022/04/29 09:06:17;;;;;;;30.50;19.00;;;;;;;17.12;46.24;100069.89;233325;1217;232773;-61
2022/04/29 09:11:26;;;;;;;20.70;13.60;;;;;;;17.35;45.63;100063.30;233131;1217;138761;-60
2022/04/29 09:16:37;;;;;;;16.90;11.90;;;;;;;17.57;45.16;100058.27;233298;1217;139297;-59
2022/04/29 09:21:40;;;;;;;14.80;11.10;;;;;;;17.73;44.66;100054.05;233422;1217;139714;-60
2022/04/29 09:26:52;;;;;;;22.30;16.70;;;;;;;17.84;44.28;100050.54;233257;1217;139727;-60
2022/04/29 09:32:24;;;;;;;9.00;6.40;;;;;;;17.93;43.42;100051.45;233489;1217;140695;-62
2022/04/29 09:43:44;;;;;;;12.70;6.30;;;;;;;18.11;42.09;100044.14;231457;1215;140958;-61
2022/04/29 09:49:06;;;;;;;12.50;7.40;;;;;;;18.20;41.67;100041.34;232132;1217;140688;-62
2022/04/29 09:54:25;;;;;;;13.30;6.90;;;;;;;18.28;41.48;100039.80;231814;1217;141621;-60
2022/04/29 09:59:39;;;;;;;10.80;6.80;;;;;;;18.29;41.20;100037.91;232737;1216;140138;-61
2022/04/29 10:04:49;;;;;;;10.00;7.20;;;;;;;18.29;40.99;100037.73;233036;1217;139222;-63
2022/04/29 10:09:56;;;;;;;11.60;6.70;;;;;;;18.43;41.01;100034.52;233137;1217;138930;-61
2022/04/29 10:15:09;;;;;;;8.50;6.50;;;;;;;18.63;40.84;100029.09;233208;1216;139742;-61
2022/04/29 10:25:48;;;;;;;8.70;6.20;;;;;;;19.02;40.39;100006.02;232306;1217;139085;-62
2022/04/29 10:31:09;;;;;;;9.80;6.10;;;;;;;19.21;40.25;100003.22;233340;1217;139193;-63
2022/04/29 10:36:24;;;;;;;9.90;5.80;;;;;;;19.24;39.56;100005.17;232225;1216;139531;-61
2022/04/29 10:41:30;;;;;;;10.00;5.20;;;;;;;19.19;39.13;100006.30;233084;1217;139697;-61
2022/04/29 10:46:38;;;;;;;;;;;;;;;19.18;39.00;99998.27;232827;1215;138979;-61
2022/04/29 10:51:47;;;;;;;10.10;5.70;;;;;;;19.14;38.24;99992.14;233311;1217;125194;-60
2022/04/29 10:57:06;;;;;;;10.90;5.50;;;;;;;18.97;37.64;99987.42;232736;1217;139591;-60
2022/04/29 11:02:13;;;;;;;6.60;5.00;;;;;;;19.00;37.90;99985.72;232383;1217;140959;-60
2022/04/29 11:07:39;;;;;;;7.20;5.20;;;;;;;19.09;37.63;99986.79;232185;1217;138829;-60
2022/04/29 11:12:59;;;;;;;58.40;45.10;;;;;;;19.07;37.00;99984.09;232028;1216;139061;-59
2022/04/29 11:18:26;;;;;;;9.00;5.70;;;;;;;19.13;37.01;99975.85;232551;1215;139204;-58
2022/04/29 11:28:55;;;;;;;8.50;4.60;;;;;;;19.56;36.70;99966.11;232403;1215;139107;-58
2022/04/29 11:34:17;;;;;;;7.90;4.50;;;;;;;19.81;36.59;99962.23;231811;1217;139451;-61
2022/04/29 11:39:20;;;;;;;11.80;4.50;;;;;;;20.06;36.62;99953.42;232051;1216;139679;-58
2022/04/29 11:44:44;;;;;;;7.10;4.10;;;;;;;20.33;36.62;99950.49;232526;1217;139050;-59
2022/04/29 11:49:49;;;;;;;;;;;;;;;20.74;36.38;99941.46;231541;1217;139317;-59
2022/04/29 11:55:14;;;;;;;7.10;4.60;;;;;;;21.14;35.98;99935.50;232652;1217;124972;-57
2022/04/29 12:00:24;;;;;;;8.40;4.30;;;;;;;21.47;35.62;99923.41;232409;1217;138615;-59
2022/04/29 12:05:29;;;;;;;8.20;4.00;;;;;;;21.57;35.24;99915.14;231631;1217;139076;-59
2022/04/29 12:10:34;;;;;;;20.70;3.90;;;;;;;21.48;34.90;99916.86;231729;1215;138460;-61
2022/04/29 12:15:51;;;;;;;6.10;4.10;;;;;;;21.15;33.84;99911.91;232233;1216;139499;-59
2022/04/29 12:21:00;;;;;;;7.10;3.90;;;;;;;20.85;33.60;99908.86;232139;1217;139243;-58
2022/04/29 12:26:07;;;;;;;7.80;5.00;;;;;;;20.87;33.93;99907.63;232167;1217;139121;-59
2022/04/29 12:36:49;;;;;;;9.00;4.60;;;;;;;21.11;33.81;99904.02;231443;1217;139573;-59
2022/04/29 12:42:04;;;;;;;7.40;4.10;;;;;;;21.17;33.80;99898.19;232053;1217;138274;-60
2022/04/29 12:47:22;;;;;;;6.70;4.00;;;;;;;21.16;33.59;99892.90;232081;1215;138665;-61
2022/04/29 12:53:00;;;;;;;8.40;3.80;;;;;;;21.34;33.56;99891.41;232443;1217;139034;-59
2022/04/29 12:58:12;;;;;;;;;;;;;;;21.80;33.07;99875.67;231841;1217;138250;-60
2022/04/29 13:03:21;;;;;;;10.70;4.00;;;;;;;22.19;33.04;99874.54;232778;1217;124985;-60
2022/04/29 13:09:00;;;;;;;40.80;28.30;;;;;;;22.61;32.55;99870.73;231844;1217;139572;-60
2022/04/29 13:14:16;;;;;;;8.60;5.20;;;;;;;22.93;32.43;99855.41;231770;1216;139080;-60
2022/04/29 13:19:23;;;;;;;8.80;4.20;;;;;;;23.26;32.50;99846.29;232039;1217;138820;-61
2022/04/29 13:24:28;;;;;;;7.90;4.70;;;;;;;23.51;31.74;99839.39;232322;1217;139025;-61
2022/04/29 13:29:42;;;;;;;12.30;5.70;;;;;;;23.38;31.34;99834.60;233211;1217;138443;-61
2022/04/29 13:34:45;;;;;;;10.90;4.30;;;;;;;23.21;31.32;99835.21;231754;1217;138881;-59
2022/04/29 13:39:51;;;;;;;5.40;3.90;;;;;;;23.16;31.22;99831.55;232015;1216;141275;-59
2022/04/29 13:45:06;;;;;;;7.30;3.50;;;;;;;23.16;30.99;99828.48;231691;1215;139256;-60
2022/04/29 13:50:12;;;;;;;10.50;3.40;;;;;;;23.38;31.21;99823.02;232145;1216;138385;-63
2022/04/29 13:55:19;;;;;;;6.80;3.50;;;;;;;23.59;30.91;99816.11;231983;1217;138703;-61
2022/04/29 14:00:25;;;;;;;11.90;3.50;;;;;;;23.87;30.40;99812.11;233083;1217;138511;-60
2022/04/29 14:05:30;;;;;;;6.00;3.40;;;;;;;23.96;30.02;99810.98;231765;1217;138935;-61
2022/04/29 14:10:37;;;;;;;9.50;5.80;;;;;;;23.71;29.84;99804.52;232795;1217;138521;-61
2022/04/29 14:15:40;;;;;;;9.50;6.20;;;;;;;23.48;29.59;99802.20;233457;1217;139454;-60
2022/04/29 14:20:43;;;;;;;8.90;5.50;;;;;;;23.15;29.71;99800.67;233230;1217;138297;-60
2022/04/29 14:25:46;;;;;;;14.00;7.20;;;;;;;22.93;29.80;99804.23;233183;1216;139921;-61
2022/04/29 14:30:49;;;;;;;10.80;4.60;;;;;;;22.63;30.18;99795.30;233223;1217;138657;-61
2022/04/29 14:35:52;;;;;;;7.20;3.50;;;;;;;22.41;30.22;99796.20;233507;1217;139018;-59
2022/04/29 14:40:55;;;;;;;313.90;230.70;;;;;;;22.11;30.08;99796.05;233307;1217;139052;-61
2022/04/29 14:45:59;;;;;;;17.40;6.80;;;;;;;21.73;30.54;99794.73;233218;1217;139272;-62
2022/04/29 14:51:04;;;;;;;7.70;3.20;;;;;;;21.39;29.97;99791.84;233235;1217;138963;-62
2022/04/29 14:56:08;;;;;;;4.80;2.90;;;;;;;21.00;29.60;99793.67;233262;1217;138832;-61
2022/04/29 15:01:11;;;;;;;4.80;2.90;;;;;;;20.77;29.97;99789.08;233449;1217;139175;-61
2022/04/29 15:06:16;;;;;;;4.30;2.40;;;;;;;20.63;30.28;99782.54;233320;1217;138533;-61
2022/04/29 15:16:40;;;;;;;5.00;3.00;;;;;;;20.46;30.19;99774.08;233186;1217;138713;-61
2022/04/29 15:21:43;;;;;;;64.80;23.80;;;;;;;20.50;30.89;99778.40;233432;1217;138782;-61
2022/04/29 15:26:46;;;;;;;44.10;13.40;;;;;;;20.47;30.66;99768.96;233575;1217;139437;-62
2022/04/29 15:31:49;;;;;;;5.70;3.00;;;;;;;20.38;30.40;99773.02;233313;1217;139102;-59
2022/04/29 15:36:52;;;;;;;5.50;2.90;;;;;;;20.21;30.02;99766.67;233530;1217;139503;-61
2022/04/29 15:41:59;;;;;;;7.60;3.40;;;;;;;20.07;29.85;99762.13;233274;1215;139553;-61
2022/04/29 15:47:02;;;;;;;11.00;5.10;;;;;;;19.94;29.72;99758.61;233446;1217;138467;-61
2022/04/29 15:52:05;;;;;;;8.90;3.30;;;;;;;19.90;29.75;99761.38;233546;1217;139202;-61
2022/04/29 15:57:08;;;;;;;6.00;3.20;;;;;;;19.82;29.83;99769.23;233328;1217;139138;-61
2022/04/29 16:02:11;;;;;;;4.70;2.60;;;;;;;19.75;30.24;99769.48;233408;1217;138398;-61
2022/04/29 16:07:14;;;;;;;8.00;2.80;;;;;;;19.59;30.41;99768.73;233345;1217;139347;-62
2022/04/29 16:12:17;;;;;;;13.40;8.40;;;;;;;19.49;31.49;99767.46;233373;1217;138561;-60
2022/04/29 16:20:31;;;;;;;16.90;9.70;;;;;;;19.98;33.74;99764.58;233057;1217;138823;-62
2022/04/29 16:28:05;;;;;;;12.50;8.20;;;;;;;20.40;33.60;99753.56;233622;1215;138381;-61
2022/04/29 16:33:09;;;;;;;18.80;9.60;;;;;;;20.40;33.40;99752.27;233357;1216;138937;-62
2022/04/29 16:38:13;;;;;;;11.70;5.80;;;;;;;20.38;33.02;99752.90;233411;1217;138457;-61
2022/04/29 16:43:16;;;;;;;8.10;3.60;;;;;;;20.27;33.07;99757.48;233249;1216;139709;-61
2022/04/29 16:48:20;;;;;;;5.40;3.20;;;;;;;20.15;32.76;99757.84;233164;1217;139160;-62
2022/04/29 16:53:23;;;;;;;403.60;298.90;;;;;;;20.05;32.90;99759.80;233292;1216;139097;-61
2022/04/29 16:58:55;;;;;;;14.00;9.00;;;;;;;19.89;32.40;99758.38;233481;1217;139790;-60
2022/04/29 17:04:00;;;;;;;10.90;3.50;;;;;;;19.62;31.99;99758.92;233575;1217;138704;-61
2022/04/29 17:09:03;;;;;;;9.00;3.10;;;;;;;19.35;31.91;99762.77;233241;1217;139221;-60
2022/04/29 17:14:07;;;;;;;6.80;2.90;;;;;;;19.11;32.06;99765.14;233420;1217;138705;-59
2022/04/29 17:19:10;;;;;;;9.20;3.50;;;;;;;18.89;32.18;99758.95;233178;1217;139016;-61
2022/04/29 17:24:13;;;;;;;7.30;3.10;;;;;;;18.72;32.64;99772.60;233228;1216;139852;-60
2022/04/29 17:29:18;;;;;;;8.70;3.20;;;;;;;18.55;32.63;99769.19;233327;1217;139094;-61
2022/04/29 17:34:21;;;;;;;7.30;3.00;;;;;;;18.40;32.95;99769.27;233404;1217;138643;-60
2022/04/29 17:44:46;;;;;;;10.20;3.40;;;;;;;18.11;33.45;99776.56;233287;1217;138153;-61
2022/04/29 17:55:14;;;;;;;5.50;3.20;;;;;;;17.82;33.54;99776.24;233338;1217;139128;-59
2022/04/29 18:00:17;;;;;;;11.40;3.40;;;;;;;17.69;33.91;99783.33;233011;1217;139223;-61
2022/04/29 18:05:26;;;;;;;21.20;10.90;;;;;;;17.63;34.33;99787.93;233312;1217;139197;-61
2022/04/29 18:10:29;;;;;;;18.10;8.90;;;;;;;17.88;35.76;99789.73;233437;1216;139840;-61
2022/04/29 18:15:32;;;;;;;22.70;14.10;;;;;;;18.22;36.16;99798.80;233393;1216;138608;-61
2022/04/29 18:20:37;;;;;;;16.90;6.30;;;;;;;18.50;36.28;99806.04;233336;1217;139442;-61
2022/04/29 18:25:40;;;;;;;13.50;7.30;;;;;;;18.70;36.24;99810.66;233183;1217;139212;-61
2022/04/29 18:30:43;;;;;;;16.30;6.80;;;;;;;18.83;36.08;99816.32;233354;1216;139880;-61
2022/04/29 18:35:47;;;;;;;11.10;5.80;;;;;;;18.86;35.45;99814.80;233378;1216;140115;-60
2022/04/29 18:40:51;;;;;;;10.80;5.40;;;;;;;18.44;34.15;99821.32;233591;1217;138601;-61
2022/04/29 18:45:54;;;;;;;11.50;5.50;;;;;;;17.90;34.24;99827.12;233035;1217;138747;-61
2022/04/29 18:50:58;;;;;;;9.30;4.90;;;;;;;17.50;34.45;99829.70;233231;1217;139713;-61
2022/04/29 18:56:01;;;;;;;13.30;5.80;;;;;;;17.17;34.73;99835.10;233369;1216;138786;-61
2022/04/29 19:01:04;;;;;;;17.00;6.10;;;;;;;16.94;35.08;99837.27;233392;1217;139290;-61
2022/04/29 19:06:08;;;;;;;14.60;6.20;;;;;;;16.76;35.12;99837.84;233320;1217;139243;-60
2022/04/29 19:11:15;;;;;;;13.50;6.30;;;;;;;16.59;35.29;99841.08;233319;1217;139296;-60
2022/04/29 19:16:18;;;;;;;190.90;128.50;;;;;;;16.44;35.61;99838.77;233407;1217;139147;-61
2022/04/29 19:21:22;;;;;;;23.30;12.00;;;;;;;16.37;35.83;99833.74;233201;1217;139500;-61
2022/04/29 19:26:25;;;;;;;17.80;8.70;;;;;;;16.27;35.74;99841.23;233255;1217;139908;-60
2022/04/29 19:31:28;;;;;;;20.30;9.60;;;;;;;16.12;36.20;99838.95;233236;1216;139329;-61
2022/04/29 19:36:31;;;;;;;17.90;9.40;;;;;;;15.96;36.39;99838.66;233176;1216;138535;-60
2022/04/29 19:41:35;;;;;;;18.40;9.30;;;;;;;15.84;36.63;99845.42;233361;1217;140278;-60
2022/04/29 19:46:38;;;;;;;24.90;9.80;;;;;;;15.74;36.95;99848.84;233460;1217;139066;-61
2022/04/29 19:51:41;;;;;;;68.40;41.60;;;;;;;15.61;37.62;99846.89;233112;1217;139778;-60
2022/04/29 20:07:48;;;;;;;26.80;12.50;;;;;;;15.28;38.38;99842.35;233296;1217;138807;-61
2022/04/29 20:12:52;;;;;;;28.40;14.90;;;;;;;15.11;38.55;99844.52;233350;1217;140151;-61
2022/04/29 20:17:55;;;;;;;254.00;177.60;;;;;;;14.99;39.39;99844.81;233336;1216;139420;-61
2022/04/29 20:22:59;;;;;;;44.30;20.90;;;;;;;14.94;39.58;99851.08;233365;1217;139672;-61
2022/04/29 20:28:02;;;;;;;35.20;17.30;;;;;;;14.82;39.45;99847.21;233520;1217;139479;-59
2022/04/29 20:33:05;;;;;;;33.40;15.80;;;;;;;14.64;39.61;99843.77;233290;1217;140150;-61
2022/04/29 20:38:08;;;;;;;32.60;14.50;;;;;;;14.49;39.82;99845.80;233139;1217;139985;-60
2022/04/29 20:48:34;;;;;;;38.20;21.00;;;;;;;14.34;40.31;99848.88;233207;1217;139397;-60
2022/04/29 20:53:37;;;;;;;32.30;16.20;;;;;;;14.30;40.42;99842.04;233308;1217;139087;-60
2022/04/29 20:58:41;;;;;;;28.80;15.40;;;;;;;14.18;40.25;99838.89;233396;1217;139129;-61
2022/04/29 21:03:44;;;;;;;31.40;16.80;;;;;;;14.08;40.22;99843.42;233485;1217;139211;-59
2022/04/29 21:08:48;;;;;;;32.90;19.30;;;;;;;13.99;40.44;99851.48;233086;1215;139052;-59
2022/04/29 21:13:51;;;;;;;74.60;53.50;;;;;;;13.90;40.92;99848.35;233230;1217;139631;-60
2022/04/29 21:18:54;;;;;;;33.80;18.00;;;;;;;13.91;41.07;99855.93;233222;1217;138980;-60
2022/04/29 21:23:57;;;;;;;32.60;16.00;;;;;;;13.82;41.19;99855.81;233252;1217;138651;-60
2022/04/29 21:34:24;;;;;;;31.20;16.50;;;;;;;13.53;41.34;99859.33;233660;1217;139235;-60
2022/04/29 21:39:27;;;;;;;31.50;15.60;;;;;;;13.41;41.31;99855.42;233191;1217;139441;-60
2022/04/29 21:44:30;;;;;;;28.20;15.90;;;;;;;13.32;41.12;99859.52;233360;1217;138927;-60
2022/04/29 21:49:32;;;;;;;29.80;14.80;;;;;;;13.26;41.83;99856.55;233291;1217;140026;-61
2022/04/29 21:54:36;;;;;;;26.30;15.20;;;;;;;13.20;41.53;99859.49;233328;1216;139149;-61
2022/04/29 21:59:39;;;;;;;32.20;16.60;;;;;;;13.14;41.53;99861.48;233350;1217;139083;-62
2022/04/29 22:04:42;;;;;;;36.80;17.90;;;;;;;13.06;41.54;99860.20;233546;1217;139666;-61
2022/04/29 22:09:46;;;;;;;31.10;17.00;;;;;;;12.96;41.78;99859.89;233485;1217;140103;-61
2022/04/29 22:14:49;;;;;;;31.10;17.40;;;;;;;12.82;42.12;99861.95;233530;1217;139413;-60
2022/04/29 22:19:52;;;;;;;31.70;16.70;;;;;;;12.67;42.32;99864.27;233316;1217;139576;-61
2022/04/29 22:24:55;;;;;;;29.70;17.20;;;;;;;12.50;42.78;99863.27;233166;1217;139446;-61
2022/04/29 22:30:02;;;;;;;32.80;15.70;;;;;;;12.34;42.92;99857.53;233501;1217;140193;-60
2022/04/29 22:35:05;;;;;;;30.90;15.50;;;;;;;12.23;43.14;99857.46;233321;1217;139321;-61
2022/04/29 22:40:09;;;;;;;26.90;14.20;;;;;;;12.16;43.20;99855.22;233357;1217;139664;-61
2022/04/29 22:45:17;;;;;;;24.10;14.00;;;;;;;12.07;44.10;99854.27;233043;1217;139074;-60
2022/04/29 22:50:22;;;;;;;27.80;13.60;;;;;;;11.98;44.20;99855.61;233239;1217;139859;-61
2022/04/29 22:55:25;;;;;;;24.80;13.20;;;;;;;11.96;44.17;99861.09;233386;1217;141902;-61
2022/04/29 23:00:29;;;;;;;28.80;12.20;;;;;;;11.92;44.32;99861.31;233516;1217;141019;-61
2022/04/29 23:05:32;;;;;;;23.30;12.30;;;;;;;11.86;44.13;99860.05;233407;1217;139078;-60
2022/04/29 23:10:36;;;;;;;19.50;11.30;;;;;;;11.82;44.54;99856.52;233258;1217;139450;-61
2022/04/29 23:15:39;;;;;;;19.60;10.80;;;;;;;11.76;44.69;99859.29;233336;1217;138693;-60
2022/04/29 23:20:43;;;;;;;18.50;10.60;;;;;;;11.70;44.65;99856.77;233314;1217;139425;-61
2022/04/29 23:25:47;;;;;;;19.60;9.70;;;;;;;11.68;44.55;99854.03;233277;1217;140146;-62
2022/04/29 23:30:51;;;;;;;19.30;9.80;;;;;;;11.66;44.32;99851.84;233314;1217;138747;-60
2022/04/29 23:35:54;;;;;;;15.40;8.10;;;;;;;11.65;44.70;99855.77;233584;1217;139057;-60
2022/04/29 23:40:58;;;;;;;13.60;7.90;;;;;;;11.61;44.61;99853.88;233412;1217;138462;-60
2022/04/29 23:46:02;;;;;;;14.30;7.90;;;;;;;11.55;44.75;99844.61;232940;1217;139372;-63
2022/04/29 23:51:05;;;;;;;16.00;6.70;;;;;;;11.49;44.68;99842.41;233265;1217;139145;-62
2022/04/29 23:56:08;;;;;;;10.40;6.10;;;;;;;11.47;44.89;99841.30;233717;1217;138853;-62
